Time;durP1;ratioP1;P1;durP2;ratioP2;P2;SDS_P1;SDS_P2;PMS_P1;PMS_P2;Temp;Humidity;BMP_temperature;BMP_pressure;BME280_temperature;BME280_humidity;BME280_pressure;Samples;Min_cycle;Max_cycle;Signal;HPM_P1;HPM_P2
2023/05/06 00:01:27;;;;;;;1.33;1.23;;;;;;;18.69;46.27;96647.28;10429296;28;20099;-47
2023/05/06 00:06:47;;;;;;;1.35;1.20;;;;;;;18.69;46.27;96641.91;10430100;28;20501;-49
2023/05/06 00:12:07;;;;;;;1.40;1.30;;;;;;;18.69;46.24;96641.91;10429807;28;20048;-48
2023/05/06 00:17:26;;;;;;;1.40;1.30;;;;;;;18.68;46.21;96643.81;10429711;28;20045;-49
2023/05/06 00:22:46;;;;;;;1.42;1.33;;;;;;;18.69;46.15;96648.09;10429465;28;20045;-45
2023/05/06 00:28:05;;;;;;;1.27;1.10;;;;;;;18.69;46.24;96666.97;10428441;28;20076;-48
2023/05/06 00:33:25;;;;;;;2.15;1.48;;;;;;;18.67;46.23;96690.78;10429021;28;20538;-48
2023/05/06 00:38:45;;;;;;;1.20;1.10;;;;;;;18.67;46.25;96716.97;10429047;28;20037;-48
2023/05/06 00:44:04;;;;;;;1.30;1.20;;;;;;;18.67;46.25;96739.34;10428747;28;20049;-48
2023/05/06 00:49:24;;;;;;;1.30;1.20;;;;;;;18.67;46.45;96762.84;10421546;28;20103;-49
2023/05/06 00:54:44;;;;;;;1.48;1.20;;;;;;;18.67;46.32;96770.94;10428463;28;20052;-46
2023/05/06 01:00:06;;;;;;;1.83;1.20;;;;;;;18.67;46.36;96757.47;10428314;28;20046;-48
2023/05/06 01:05:30;;;;;;;1.10;1.00;;;;;;;18.66;46.37;96732.38;10428201;28;20041;-55
2023/05/06 01:10:59;;;;;;;1.30;1.20;;;;;;;18.65;46.44;96706.50;10427961;28;20041;-55
2023/05/06 01:16:19;;;;;;;1.20;1.08;;;;;;;18.66;46.43;96726.19;10428032;28;20052;-55
2023/05/06 01:21:40;;;;;;;1.30;1.20;;;;;;;18.66;46.33;96716.19;10427954;28;20056;-55
2023/05/06 01:27:00;;;;;;;1.10;1.00;;;;;;;18.66;46.41;96718.91;10426854;28;20104;-55
2023/05/06 01:32:25;;;;;;;1.30;1.20;;;;;;;18.65;46.44;96722.69;10427559;28;20092;-55
2023/05/06 01:37:56;;;;;;;1.35;1.20;;;;;;;18.66;46.41;96702.72;10427547;28;20041;-55
2023/05/06 01:43:17;;;;;;;1.45;1.35;;;;;;;18.64;46.43;96704.94;10435677;28;20056;-55
2023/05/06 01:48:38;;;;;;;1.00;1.00;;;;;;;18.65;46.43;96706.50;10431626;28;20050;-55
2023/05/06 01:53:57;;;;;;;1.35;1.17;;;;;;;18.64;46.39;96699.53;10434252;28;20041;-55
2023/05/06 01:59:16;;;;;;;1.40;1.30;;;;;;;18.63;46.46;96697.94;10434131;28;20041;-55
2023/05/06 02:04:35;;;;;;;1.52;1.27;;;;;;;18.65;46.44;96703.03;10434837;28;20049;-55
2023/05/06 02:09:55;;;;;;;1.30;1.20;;;;;;;18.63;46.52;96692.53;10433792;28;20049;-55
2023/05/06 02:15:15;;;;;;;1.05;0.98;;;;;;;18.64;46.46;96694.13;10433503;28;20041;-55
2023/05/06 02:20:36;;;;;;;1.20;1.10;;;;;;;18.63;46.46;96692.53;10433261;28;20048;-55
2023/05/06 02:25:57;;;;;;;1.00;1.00;;;;;;;18.62;46.52;96699.06;10433118;28;20382;-55
2023/05/06 02:31:17;;;;;;;1.35;1.17;;;;;;;18.63;46.57;96689.06;10433729;28;20045;-55
2023/05/06 02:36:36;;;;;;;1.20;1.10;;;;;;;18.62;46.46;96680.19;10432698;28;20481;-55
2023/05/06 02:41:55;;;;;;;1.40;1.30;;;;;;;18.63;46.57;96670.16;10420337;28;20088;-55
2023/05/06 02:47:15;;;;;;;1.20;1.10;;;;;;;18.61;46.54;96670.47;10433345;28;20042;-55
2023/05/06 02:52:34;;;;;;;1.25;1.13;;;;;;;18.63;46.51;96670.16;10432036;28;20440;-55
2023/05/06 02:57:54;;;;;;;1.33;1.05;;;;;;;18.63;46.69;96672.88;10432936;28;20044;-55
2023/05/06 03:03:13;;;;;;;1.30;1.20;;;;;;;18.61;46.71;96665.09;10432756;28;20055;-55
2023/05/06 03:08:33;;;;;;;1.30;1.20;;;;;;;18.61;46.70;96665.09;10432435;28;20044;-55
2023/05/06 03:13:53;;;;;;;1.92;1.23;;;;;;;18.61;46.54;96664.31;10431239;28;20042;-55
2023/05/06 03:19:12;;;;;;;1.38;1.27;;;;;;;18.60;46.73;96660.78;10432024;28;20048;-55
2023/05/06 03:24:33;;;;;;;1.20;1.10;;;;;;;18.61;46.65;96664.31;10430939;28;20072;-55
2023/05/06 03:29:55;;;;;;;1.10;1.00;;;;;;;18.60;46.64;96666.19;10430760;28;20033;-55
2023/05/06 03:35:17;;;;;;;1.20;1.10;;;;;;;18.60;46.70;96665.41;10416934;28;20045;-55
2023/05/06 03:40:41;;;;;;;1.13;1.10;;;;;;;18.60;46.64;96662.69;10430253;28;20099;-55
2023/05/06 03:46:02;;;;;;;1.20;1.10;;;;;;;18.59;46.61;96667.31;10416232;28;20072;-55
2023/05/06 03:51:23;;;;;;;1.00;0.80;;;;;;;18.59;46.82;96659.22;10418380;28;20058;-55
2023/05/06 03:56:43;;;;;;;1.23;1.13;;;;;;;18.58;46.70;96661.13;10430517;28;20044;-55
2023/05/06 04:02:03;;;;;;;1.10;1.00;;;;;;;18.58;46.72;96663.84;10429182;28;20071;-55
2023/05/06 04:07:23;;;;;;;1.10;1.00;;;;;;;18.58;46.68;96682.72;10429078;28;20037;-55
2023/05/06 04:12:43;;;;;;;1.17;1.10;;;;;;;18.58;46.74;96687.31;10428870;28;20107;-55
2023/05/06 04:18:06;;;;;;;1.00;1.00;;;;;;;18.57;46.73;96685.72;10428735;28;20048;-55
2023/05/06 04:23:28;;;;;;;1.30;1.20;;;;;;;18.57;46.84;96685.72;10428576;28;20409;-55
2023/05/06 04:28:50;;;;;;;1.48;1.17;;;;;;;18.57;46.78;96697.31;10428522;28;20045;-55
2023/05/06 04:34:10;;;;;;;0.98;0.98;;;;;;;18.57;46.75;96710.78;10428198;28;20387;-55
2023/05/06 04:39:30;;;;;;;1.10;1.00;;;;;;;18.57;46.91;96705.41;10414953;28;20057;-55
2023/05/06 04:44:50;;;;;;;1.30;1.20;;;;;;;18.56;46.82;96700.31;10427904;28;20053;-55
2023/05/06 04:50:13;;;;;;;1.02;1.00;;;;;;;18.55;46.92;96696.84;10419397;28;20053;-55
2023/05/06 04:55:34;;;;;;;1.33;1.23;;;;;;;18.55;46.98;96696.06;10427537;28;20040;-55
2023/05/06 05:00:54;;;;;;;1.20;1.10;;;;;;;18.57;46.97;96677.63;10428335;28;20049;-55
2023/05/06 05:06:14;;;;;;;0.90;0.90;;;;;;;18.55;46.91;96672.56;10427234;28;20045;-55
2023/05/06 05:11:37;;;;;;;1.10;1.00;;;;;;;18.55;46.99;96696.06;10427153;28;20045;-55
2023/05/06 05:16:56;;;;;;;2.25;1.17;;;;;;;18.56;46.99;96700.31;10427428;28;20049;-55
2023/05/06 05:22:16;;;;;;;1.00;0.93;;;;;;;18.55;47.06;96702.22;10427635;28;20049;-55
2023/05/06 05:27:37;;;;;;;1.20;0.88;;;;;;;18.56;46.98;96713.81;10426832;28;20049;-55
2023/05/06 05:32:56;;;;;;;1.00;1.00;;;;;;;18.54;47.09;96700.66;10426677;28;20042;-55
2023/05/06 05:38:16;;;;;;;1.00;1.00;;;;;;;18.53;47.05;96704.47;10427669;28;20076;-55
2023/05/06 05:43:37;;;;;;;0.80;0.80;;;;;;;18.55;46.97;96712.25;10426446;28;20042;-55
2023/05/06 05:48:56;;;;;;;1.00;1.00;;;;;;;18.54;46.99;96716.03;10421681;28;20053;-55
2023/05/06 05:54:17;;;;;;;0.95;0.95;;;;;;;18.54;47.01;96722.25;10426228;28;20045;-55
2023/05/06 05:59:37;;;;;;;0.90;0.90;;;;;;;18.53;47.08;96720.66;10427178;28;20037;-55
2023/05/06 06:04:58;;;;;;;0.98;0.98;;;;;;;18.54;47.19;96726.81;10426132;28;20498;-55
2023/05/06 06:10:18;;;;;;;0.98;0.95;;;;;;;18.55;47.10;96733.81;10425924;28;20033;-55
2023/05/06 06:15:40;;;;;;;0.90;0.90;;;;;;;18.53;47.23;96728.75;10426872;28;20041;-55
2023/05/06 06:20:59;;;;;;;1.10;1.00;;;;;;;18.54;47.26;96732.22;10426843;28;20049;-55
2023/05/06 06:26:20;;;;;;;1.23;0.90;;;;;;;18.54;47.22;96726.81;10415697;28;20108;-55
2023/05/06 06:31:39;;;;;;;1.00;0.98;;;;;;;18.54;47.35;96730.34;10432854;28;20045;-55
2023/05/06 06:36:59;;;;;;;1.20;1.10;;;;;;;18.55;47.46;96747.31;10433674;28;20045;-55
2023/05/06 06:42:18;;;;;;;0.82;0.80;;;;;;;18.54;47.37;96745.72;10419107;28;20053;-54
2023/05/06 06:47:42;;;;;;;1.02;0.93;;;;;;;18.53;47.50;96742.22;10431003;28;20072;-54
2023/05/06 06:53:02;;;;;;;1.25;1.08;;;;;;;18.52;47.41;96743.34;10432964;28;20038;-55
2023/05/06 06:58:21;;;;;;;0.80;0.80;;;;;;;18.54;47.57;96756.50;10432792;28;20468;-55
2023/05/06 07:03:40;;;;;;;1.10;1.00;;;;;;;18.54;47.62;96753.81;10432612;28;20249;-55
2023/05/06 07:09:00;;;;;;;1.10;1.00;;;;;;;18.54;47.53;96756.50;10432498;28;20043;-55
2023/05/06 07:14:20;;;;;;;0.98;0.93;;;;;;;18.55;47.63;96766.19;10432207;28;20096;-55
2023/05/06 07:19:39;;;;;;;1.10;0.98;;;;;;;18.54;47.66;96764.59;10432101;28;20037;-55
2023/05/06 07:24:59;;;;;;;1.10;1.00;;;;;;;18.53;47.72;96755.72;10431874;28;20075;-55
2023/05/06 07:30:19;;;;;;;0.90;0.90;;;;;;;18.54;47.80;96767.28;10431656;28;20449;-55
2023/05/06 07:35:38;;;;;;;0.90;0.90;;;;;;;18.55;47.62;96782.38;10418295;28;20057;-55
2023/05/06 07:40:57;;;;;;;1.10;1.00;;;;;;;18.55;47.79;96782.38;10431392;28;20095;-55
2023/05/06 07:46:17;;;;;;;1.00;0.93;;;;;;;18.54;47.74;96778.09;10431131;28;20401;-55
2023/05/06 07:51:37;;;;;;;0.80;0.80;;;;;;;18.56;47.71;96789.34;10418726;28;20501;-54
2023/05/06 07:56:57;;;;;;;1.23;1.00;;;;;;;18.55;47.80;96788.56;10430606;28;20053;-55
2023/05/06 08:02:17;;;;;;;0.88;0.80;;;;;;;18.56;47.98;96794.75;10429601;28;20383;-55
2023/05/06 08:07:37;;;;;;;42.40;26.35;;;;;;;18.56;48.45;96800.13;10430256;28;20408;-56
2023/05/06 08:12:57;;;;;;;26.02;17.48;;;;;;;18.56;48.41;96803.66;10430062;28;20044;-55
2023/05/06 08:18:16;;;;;;;14.68;10.15;;;;;;;18.55;48.42;96798.56;10429853;28;20049;-55
2023/05/06 08:23:36;;;;;;;12.77;7.90;;;;;;;18.55;48.24;96803.97;10429663;28;20049;-55
2023/05/06 08:28:57;;;;;;;13.50;9.27;;;;;;;18.55;48.39;96807.44;10429421;28;20041;-56
2023/05/06 08:34:19;;;;;;;13.50;8.82;;;;;;;18.55;48.37;96804.75;10429274;28;20037;-55
2023/05/06 08:39:39;;;;;;;14.45;9.15;;;;;;;18.56;48.39;96805.53;10429202;28;20053;-55
2023/05/06 08:44:58;;;;;;;11.93;8.45;;;;;;;18.55;48.40;96810.16;10428922;28;20046;-55
2023/05/06 08:50:18;;;;;;;13.95;8.40;;;;;;;18.56;48.25;96819.03;10419583;28;20053;-55
2023/05/06 08:55:40;;;;;;;13.35;8.25;;;;;;;18.54;48.28;96826.66;10427637;28;20046;-55
2023/05/06 09:01:01;;;;;;;11.98;8.07;;;;;;;18.54;48.48;96815.84;10427415;28;20052;-55
2023/05/06 09:06:21;;;;;;;10.48;7.72;;;;;;;18.56;48.22;96811.75;10428268;28;20053;-55
2023/05/06 09:11:41;;;;;;;11.43;8.20;;;;;;;18.56;48.45;96810.94;10428056;28;20045;-55
2023/05/06 09:17:00;;;;;;;11.80;8.30;;;;;;;18.54;48.48;96813.16;10427996;28;20041;-55
2023/05/06 09:22:25;;;;;;;10.25;7.88;;;;;;;18.55;48.52;96817.47;10414718;28;20046;-55
2023/05/06 09:27:44;;;;;;;10.02;7.40;;;;;;;18.55;48.52;96820.16;10427768;28;20045;-55
2023/05/06 09:33:04;;;;;;;8.50;6.97;;;;;;;18.54;48.49;96805.06;10427661;28;20041;-55
2023/05/06 09:38:23;;;;;;;9.38;7.03;;;;;;;18.54;48.34;96808.56;10426538;28;20042;-55
2023/05/06 09:43:45;;;;;;;11.40;7.30;;;;;;;18.55;48.37;96804.75;10427478;28;20065;-55
2023/05/06 09:49:04;;;;;;;9.43;6.70;;;;;;;18.55;48.58;96801.28;10422301;28;20111;-55
2023/05/06 09:54:25;;;;;;;10.25;6.82;;;;;;;18.56;48.45;96789.34;10426237;28;20441;-56
2023/05/06 09:59:46;;;;;;;9.10;6.93;;;;;;;18.54;48.46;96788.88;10427493;28;20505;-55
2023/05/06 10:05:08;;;;;;;10.38;7.05;;;;;;;18.54;48.41;96796.97;10434972;28;20489;-55
2023/05/06 10:10:28;;;;;;;9.32;6.38;;;;;;;18.55;48.59;96801.28;10433671;28;20042;-56
2023/05/06 10:15:49;;;;;;;9.27;6.63;;;;;;;18.55;48.52;96793.97;10434580;28;20041;-55
2023/05/06 10:21:14;;;;;;;8.88;6.05;;;;;;;18.55;48.59;96793.16;10434315;28;20041;-55
2023/05/06 10:26:38;;;;;;;10.38;6.22;;;;;;;18.55;48.76;96791.25;10433265;28;20409;-55
2023/05/06 10:31:58;;;;;;;7.65;5.07;;;;;;;18.56;48.79;96792.03;10433788;28;20045;-55
2023/05/06 10:37:19;;;;;;;19.35;8.23;;;;;;;18.54;49.11;96780.78;10433737;28;20045;-55
2023/05/06 10:42:38;;;;;;;89.63;18.27;;;;;;;18.54;49.43;96780.78;10432583;28;20413;-55
2023/05/06 10:47:57;;;;;;;25.23;7.97;;;;;;;18.54;49.71;96770.00;10431284;28;20059;-54
2023/05/06 10:53:55;;;;;;;24.58;7.93;;;;;;;18.54;49.92;96770.81;10433160;28;20052;-55
2023/05/06 10:59:27;;;;;;;21.20;7.95;;;;;;;18.55;49.93;96768.91;10432890;28;20041;-55
2023/05/06 11:04:51;;;;;;;24.98;7.90;;;;;;;18.53;49.77;96774.59;10432721;28;20041;-55
2023/05/06 11:10:11;;;;;;;14.98;6.80;;;;;;;18.54;50.15;96778.91;10431500;28;20052;-55
2023/05/06 11:15:39;;;;;;;16.67;6.22;;;;;;;18.54;50.09;96784.28;10431718;28;20045;-55
2023/05/06 11:20:58;;;;;;;14.20;5.60;;;;;;;18.54;50.48;96786.19;10431957;28;20045;-55
2023/05/06 11:26:18;;;;;;;9.45;4.97;;;;;;;18.55;50.13;96790.47;10431994;28;20064;-55
2023/05/06 11:31:39;;;;;;;11.68;5.03;;;;;;;18.55;50.02;96793.16;10431522;28;20041;-54
2023/05/06 11:37:01;;;;;;;14.95;5.65;;;;;;;18.54;50.11;96797.78;10431396;28;20052;-54
2023/05/06 11:42:26;;;;;;;11.88;5.05;;;;;;;18.54;50.30;96789.69;10431153;28;20059;-55
2023/05/06 11:47:45;;;;;;;11.13;5.00;;;;;;;18.55;50.27;96793.16;10429504;28;20057;-54
2023/05/06 11:53:05;;;;;;;11.60;5.10;;;;;;;18.55;50.16;96798.56;10430807;28;20048;-54
2023/05/06 11:58:26;;;;;;;12.93;4.95;;;;;;;18.56;50.40;96805.53;10430591;28;20041;-54
2023/05/06 12:03:46;;;;;;;9.85;5.03;;;;;;;18.54;50.16;96802.38;10430321;28;20041;-55
2023/05/06 12:09:08;;;;;;;10.18;5.65;;;;;;;18.54;50.38;96819.38;10430154;28;20460;-55
2023/05/06 12:14:28;;;;;;;12.20;5.32;;;;;;;18.55;50.33;96836.34;10428958;28;20117;-55
2023/05/06 12:19:48;;;;;;;9.85;4.38;;;;;;;18.54;50.57;96816.66;10428763;28;20041;-55
2023/05/06 12:25:13;;;;;;;11.98;5.40;;;;;;;18.53;50.25;96833.16;10428652;28;20053;-55
2023/05/06 12:30:33;;;;;;;10.02;4.80;;;;;;;18.54;50.21;96823.94;10429283;28;20104;-55
2023/05/06 12:35:55;;;;;;;7.95;4.20;;;;;;;18.54;50.51;96829.34;10429143;28;20045;-55
2023/05/06 12:41:15;;;;;;;8.45;4.43;;;;;;;18.53;50.51;96823.16;10429003;28;20042;-55
2023/05/06 12:46:35;;;;;;;9.52;4.70;;;;;;;18.53;50.49;96817.75;10428881;28;20041;-55
2023/05/06 12:52:08;;;;;;;8.52;4.93;;;;;;;18.55;50.46;96820.16;10415722;28;20060;-55
2023/05/06 12:57:29;;;;;;;9.93;4.53;;;;;;;18.55;50.35;96804.75;10415365;28;20136;-55
2023/05/06 13:02:49;;;;;;;8.02;4.43;;;;;;;18.56;50.50;96821.72;10428353;28;20064;-55
2023/05/06 13:08:08;;;;;;;7.93;4.22;;;;;;;18.55;50.42;96817.47;10428218;28;20064;-55
2023/05/06 13:13:28;;;;;;;7.40;4.75;;;;;;;18.55;50.50;96807.44;10414966;28;20053;-55
2023/05/06 13:18:47;;;;;;;6.78;4.07;;;;;;;18.56;50.33;96808.22;10414857;28;20053;-55
2023/05/06 13:24:07;;;;;;;8.85;4.25;;;;;;;18.55;50.48;96810.16;10427949;28;20519;-55
2023/05/06 13:29:28;;;;;;;6.25;4.22;;;;;;;18.56;50.29;96816.31;10427775;28;20037;-55
2023/05/06 13:34:48;;;;;;;6.55;4.15;;;;;;;18.55;50.35;96825.53;10428998;28;20044;-55
2023/05/06 13:40:08;;;;;;;8.20;4.50;;;;;;;18.56;50.25;96827.13;10435964;28;20052;-55
2023/05/06 13:45:28;;;;;;;7.95;3.95;;;;;;;18.54;50.41;96816.66;10422625;28;20095;-55
2023/05/06 13:50:47;;;;;;;8.45;4.47;;;;;;;18.55;50.53;96812.06;10425797;28;20049;-55
2023/05/06 13:56:07;;;;;;;9.15;4.32;;;;;;;18.56;50.50;96805.53;10435353;28;20042;-55
2023/05/06 14:01:27;;;;;;;5.40;3.53;;;;;;;18.55;50.50;96793.16;10435270;28;20049;-55
2023/05/06 14:06:46;;;;;;;8.13;4.13;;;;;;;18.56;50.34;96802.84;10434965;28;20087;-55
2023/05/06 14:12:06;;;;;;;5.88;3.72;;;;;;;18.56;50.56;96794.75;10434757;28;20041;-55
2023/05/06 14:17:26;;;;;;;4.63;3.80;;;;;;;18.56;50.47;96794.75;10434605;28;20060;-55
2023/05/06 14:22:45;;;;;;;6.65;3.85;;;;;;;18.55;50.44;96788.56;10434372;28;20045;-55
2023/05/06 14:28:05;;;;;;;5.95;3.50;;;;;;;18.55;50.66;96788.56;10434180;28;20057;-55
2023/05/06 14:33:24;;;;;;;5.43;3.15;;;;;;;18.56;50.77;96792.88;10433858;28;20038;-55
2023/05/06 14:38:43;;;;;;;7.43;3.88;;;;;;;18.56;50.57;96790.16;10433695;28;20041;-55
2023/05/06 14:44:03;;;;;;;6.22;3.97;;;;;;;18.55;50.46;96791.25;10433573;28;20160;-55
2023/05/06 14:49:22;;;;;;;6.40;3.70;;;;;;;18.57;50.61;96789.03;10426235;28;20049;-55
2023/05/06 14:54:43;;;;;;;5.03;3.38;;;;;;;18.55;50.62;96793.97;10433107;28;20053;-55
2023/05/06 15:00:07;;;;;;;4.18;3.20;;;;;;;18.56;50.71;96792.03;10432977;28;20045;-55
2023/05/06 15:05:26;;;;;;;5.10;3.13;;;;;;;18.56;50.96;96789.34;10431872;28;20395;-55
2023/05/06 15:10:49;;;;;;;5.15;3.42;;;;;;;18.58;50.90;96796.03;10432426;28;20048;-55
2023/05/06 15:16:09;;;;;;;5.85;2.80;;;;;;;18.59;50.95;96796.81;10432355;28;20482;-55
2023/05/06 15:21:28;;;;;;;2.90;2.38;;;;;;;18.58;50.92;96789.81;10431138;28;20045;-55
2023/05/06 15:26:48;;;;;;;5.18;3.17;;;;;;;18.58;50.83;96793.34;10431877;28;20481;-55
2023/05/06 15:32:07;;;;;;;5.40;3.30;;;;;;;18.60;50.86;96795.69;10431703;28;20041;-55
2023/05/06 15:37:27;;;;;;;4.10;3.17;;;;;;;18.58;50.89;96787.13;10431539;28;20501;-55
2023/05/06 15:42:46;;;;;;;5.53;3.40;;;;;;;18.58;50.84;96790.63;10431320;28;20482;-55
2023/05/06 15:48:06;;;;;;;5.40;3.40;;;;;;;18.60;51.04;96797.59;10428764;28;20390;-55
2023/05/06 15:53:27;;;;;;;5.95;3.55;;;;;;;18.62;51.05;96795.38;10430771;28;20041;-55
2023/05/06 15:58:48;;;;;;;4.75;3.10;;;;;;;18.62;51.15;96790.81;10430312;28;20052;-55
2023/05/06 16:04:08;;;;;;;4.85;2.70;;;;;;;18.62;51.16;96798.91;10430559;28;20041;-55
2023/05/06 16:09:27;;;;;;;4.32;2.85;;;;;;;18.61;50.94;96802.69;10430254;28;20038;-55
2023/05/06 16:14:46;;;;;;;4.50;2.85;;;;;;;18.61;51.01;96794.59;10429980;28;20041;-55
2023/05/06 16:20:08;;;;;;;7.47;3.00;;;;;;;18.60;51.05;96800.31;10429751;28;20037;-55
2023/05/06 16:25:28;;;;;;;4.40;3.13;;;;;;;18.59;50.68;96810.31;10429599;28;20045;-55
2023/05/06 16:30:48;;;;;;;5.47;3.20;;;;;;;18.60;50.57;96809.19;10429389;28;20068;-55
2023/05/06 16:36:08;;;;;;;5.68;3.22;;;;;;;18.60;50.46;96813.78;10429245;28;20095;-55
2023/05/06 16:41:27;;;;;;;5.90;3.20;;;;;;;18.58;50.67;96808.72;10429114;28;20071;-55
2023/05/06 16:46:47;;;;;;;6.32;3.38;;;;;;;18.58;50.54;96814.91;10428908;28;20433;-55
2023/05/06 16:52:06;;;;;;;7.32;3.30;;;;;;;18.58;50.55;96819.50;10415334;28;20049;-55
2023/05/06 16:57:26;;;;;;;5.63;3.10;;;;;;;18.59;50.54;96821.09;10428614;28;20057;-55
2023/05/06 17:02:46;;;;;;;4.68;3.20;;;;;;;18.60;50.58;96829.97;10428422;28;20494;-55
2023/05/06 17:08:05;;;;;;;5.03;3.25;;;;;;;18.58;50.63;96819.50;10428282;28;20038;-55
2023/05/06 17:13:25;;;;;;;5.47;3.53;;;;;;;18.57;50.53;96829.50;10427650;28;20064;-55
2023/05/06 17:18:44;;;;;;;4.95;3.47;;;;;;;18.58;50.68;96836.50;10428028;28;20040;-55
2023/05/06 17:24:05;;;;;;;5.45;3.17;;;;;;;18.56;50.69;96838.72;10427952;28;20045;-55
2023/05/06 17:29:24;;;;;;;4.85;3.30;;;;;;;18.57;50.80;96839.50;10414693;28;20054;-55
2023/05/06 17:34:44;;;;;;;4.47;3.08;;;;;;;18.57;50.64;96840.31;10427679;28;20440;-55
2023/05/06 17:40:05;;;;;;;4.35;3.20;;;;;;;18.57;50.69;96847.59;10427639;28;20045;-55
2023/05/06 17:45:25;;;;;;;4.13;3.10;;;;;;;18.58;50.69;96857.28;10427509;28;20056;-55
2023/05/06 17:50:45;;;;;;;4.25;2.90;;;;;;;18.57;50.67;96863.78;10417804;28;20057;-55
2023/05/06 17:56:04;;;;;;;5.07;3.10;;;;;;;18.57;50.51;96879.97;10427358;28;20045;-55
2023/05/06 18:01:24;;;;;;;5.70;3.20;;;;;;;18.57;50.67;96882.69;10427289;28;20044;-55
2023/05/06 18:06:45;;;;;;;4.53;3.03;;;;;;;18.56;50.57;96887.28;10427234;28;20402;-55
2023/05/06 18:12:05;;;;;;;5.28;2.97;;;;;;;18.55;50.64;96895.69;10427124;28;20441;-55
2023/05/06 18:17:24;;;;;;;4.13;3.05;;;;;;;18.56;50.52;96891.88;10426987;28;20046;-55
2023/05/06 18:22:43;;;;;;;5.10;3.17;;;;;;;18.56;50.59;96899.97;10431263;28;20413;-55
2023/05/06 18:28:04;;;;;;;4.60;3.20;;;;;;;18.56;50.48;96910.75;10433375;28;20493;-55
2023/05/06 18:33:23;;;;;;;4.15;2.70;;;;;;;18.55;50.46;96920.75;10434030;28;20091;-55
2023/05/06 18:38:43;;;;;;;4.68;2.90;;;;;;;18.54;50.58;96927.28;10433951;28;20042;-55
2023/05/06 18:44:03;;;;;;;4.22;2.85;;;;;;;18.55;50.62;96939.66;10433785;28;20049;-55
2023/05/06 18:49:22;;;;;;;4.30;3.05;;;;;;;18.55;50.48;96944.25;10427766;28;20387;-55
2023/05/06 18:54:42;;;;;;;4.85;2.63;;;;;;;18.55;50.40;96955.84;10433251;28;20052;-55
2023/05/06 19:00:05;;;;;;;4.80;2.80;;;;;;;18.54;50.48;96965.06;10433143;28;20052;-55
2023/05/06 19:05:25;;;;;;;3.63;2.80;;;;;;;18.55;50.41;96963.16;10419823;28;20049;-55
2023/05/06 19:10:45;;;;;;;3.95;2.80;;;;;;;18.54;50.33;96970.44;10432783;28;20038;-55
2023/05/06 19:16:05;;;;;;;3.17;2.45;;;;;;;18.53;50.39;96968.06;10432544;28;20092;-55
2023/05/06 19:21:24;;;;;;;4.53;2.90;;;;;;;18.54;50.36;96975.03;10432326;28;20049;-55
2023/05/06 19:26:45;;;;;;;3.20;2.63;;;;;;;18.53;50.42;96974.25;10432209;28;20049;-55
2023/05/06 19:32:05;;;;;;;4.18;2.88;;;;;;;18.53;50.49;96979.63;10431207;28;20042;-55
2023/05/06 19:37:28;;;;;;;4.50;2.90;;;;;;;18.53;50.47;96976.94;10431699;28;20482;-55
2023/05/06 19:42:48;;;;;;;3.67;2.20;;;;;;;18.52;50.46;96982.63;10418435;28;20049;-55
2023/05/06 19:48:07;;;;;;;4.70;2.55;;;;;;;18.52;50.42;96986.16;10428926;28;20498;-55
2023/05/06 19:53:27;;;;;;;3.65;2.80;;;;;;;18.52;50.41;96983.47;10417945;28;20053;-55
2023/05/06 19:58:47;;;;;;;3.60;2.47;;;;;;;18.52;50.44;96993.44;10430922;28;20444;-55
2023/05/06 20:04:08;;;;;;;2.58;2.30;;;;;;;18.53;50.43;96992.34;10430662;28;20057;-55
2023/05/06 20:09:28;;;;;;;3.72;2.58;;;;;;;18.52;50.35;97007.75;10430461;28;20049;-55
2023/05/06 20:14:48;;;;;;;3.40;2.30;;;;;;;18.51;50.44;97019.63;10429300;28;20048;-55
2023/05/06 20:20:08;;;;;;;3.00;2.60;;;;;;;18.51;50.54;97011.53;10430045;28;20041;-55
2023/05/06 20:25:28;;;;;;;3.38;2.80;;;;;;;18.51;50.65;97000.75;10429844;28;20401;-55
2023/05/06 20:30:50;;;;;;;4.15;2.53;;;;;;;18.50;50.54;96996.47;10429589;28;20052;-55
2023/05/06 20:36:10;;;;;;;3.10;2.28;;;;;;;18.50;50.50;97001.03;10429348;28;20037;-55
2023/05/06 20:41:31;;;;;;;3.45;2.50;;;;;;;18.51;50.41;97002.66;10416091;28;20049;-55
2023/05/06 20:46:50;;;;;;;2.90;2.20;;;;;;;18.50;50.55;97012.66;10428086;28;20037;-55
2023/05/06 20:52:13;;;;;;;2.80;2.25;;;;;;;18.50;50.54;97006.44;10415273;28;20053;-55
2023/05/06 20:57:32;;;;;;;3.30;2.40;;;;;;;18.50;50.62;97017.22;10428661;28;20053;-55
2023/05/06 21:02:52;;;;;;;3.17;2.47;;;;;;;18.50;50.58;97004.56;10428522;28;20046;-55
2023/05/06 21:08:11;;;;;;;2.80;2.40;;;;;;;18.50;50.61;97014.53;10415213;28;20050;-55
2023/05/06 21:13:31;;;;;;;4.07;2.15;;;;;;;18.49;50.49;97023.75;10428146;28;20593;-55
2023/05/06 21:18:51;;;;;;;3.15;2.53;;;;;;;18.49;50.58;97021.84;10428138;28;20048;-55
2023/05/06 21:24:11;;;;;;;3.20;2.35;;;;;;;18.49;50.43;97021.06;10427986;28;20042;-55
2023/05/06 21:29:31;;;;;;;3.65;2.38;;;;;;;18.47;50.46;97021.34;10427882;28;20042;-55
2023/05/06 21:34:50;;;;;;;2.42;2.15;;;;;;;18.49;50.49;97029.94;10427716;28;20048;-55
2023/05/06 21:40:11;;;;;;;2.33;2.05;;;;;;;18.48;50.61;97024.84;10414102;28;20047;-55
2023/05/06 21:45:31;;;;;;;3.08;2.45;;;;;;;18.49;50.56;97037.25;10427633;28;20049;-55
2023/05/06 21:50:51;;;;;;;3.10;2.17;;;;;;;18.49;50.36;97037.25;10417662;28;20379;-55
2023/05/06 21:56:10;;;;;;;2.40;2.20;;;;;;;18.48;50.43;97030.22;10429422;28;20048;-55
2023/05/06 22:01:30;;;;;;;2.92;2.10;;;;;;;18.48;50.45;97041.03;10435336;28;20051;-55
2023/05/06 22:06:50;;;;;;;2.75;2.20;;;;;;;18.47;50.65;97039.44;10435262;28;20065;-55
2023/05/06 22:12:11;;;;;;;2.50;2.03;;;;;;;18.46;50.56;97044.03;10434942;28;20085;-55
2023/05/06 22:17:31;;;;;;;3.15;2.40;;;;;;;18.47;50.42;97042.94;10434753;28;20041;-55
2023/05/06 22:22:51;;;;;;;2.30;2.10;;;;;;;18.47;50.36;97051.03;10434476;28;20038;-55
2023/05/06 22:28:11;;;;;;;2.40;2.10;;;;;;;18.46;50.39;97049.44;10434282;28;20045;-55
2023/05/06 22:33:30;;;;;;;2.42;2.00;;;;;;;18.46;50.57;97054.03;10434129;28;20406;-55
2023/05/06 22:38:50;;;;;;;2.42;2.03;;;;;;;18.45;50.48;97047.84;10433900;28;20052;-55
2023/05/06 22:44:09;;;;;;;2.67;2.15;;;;;;;18.46;50.56;97054.81;10433710;28;20045;-55
2023/05/06 22:49:29;;;;;;;2.88;2.30;;;;;;;18.46;50.52;97054.03;10419960;28;20057;-55
2023/05/06 22:54:49;;;;;;;2.60;2.30;;;;;;;18.45;50.39;97047.06;10433239;28;20046;-55
2023/05/06 23:00:11;;;;;;;2.42;1.80;;;;;;;18.45;50.41;97047.84;10433206;28;20080;-55
2023/05/06 23:05:30;;;;;;;2.10;1.90;;;;;;;18.44;50.27;97046.25;10433010;28;20058;-55
2023/05/06 23:10:50;;;;;;;2.67;2.00;;;;;;;18.44;50.46;97051.63;10431599;28;20037;-55
2023/05/06 23:16:09;;;;;;;2.53;2.10;;;;;;;18.45;50.30;97041.66;10432470;28;20033;-55
2023/05/06 23:21:29;;;;;;;2.40;2.00;;;;;;;18.43;50.40;97035.78;10432357;28;20441;-55
2023/05/06 23:26:48;;;;;;;2.58;2.17;;;;;;;18.43;50.34;97043.88;10419005;28;20053;-55
2023/05/06 23:32:08;;;;;;;2.45;2.05;;;;;;;18.43;50.34;97039.28;10431816;28;20041;-55
2023/05/06 23:37:27;;;;;;;2.30;2.00;;;;;;;18.44;50.24;97040.06;10431743;28;20037;-55
2023/05/06 23:42:47;;;;;;;2.40;2.08;;;;;;;18.43;50.35;97047.38;10431503;28;20044;-55
2023/05/06 23:48:07;;;;;;;2.15;1.95;;;;;;;18.43;50.27;97046.56;10428989;28;20494;-55
2023/05/06 23:53:26;;;;;;;1.75;1.60;;;;;;;18.42;50.33;97050.38;10431000;28;20048;-55
2023/05/06 23:58:45;;;;;;;2.42;1.98;;;;;;;18.42;50.29;97048.47;10430807;28;20551;-55
